Canyon Lake, Texas
Current Conditions -  °F | °C
As of 10:51 AM on Friday 24 Oct 2014 (Local Time) from KBAZ Reporting Station
Clear Clear  
Wind Chill: 75°   Ceiling: Unl
Heat Index: 75°   Visibility: 10mi
Dew Point: 58°   Wind: 0mph
Humidity: 55%   Direction: NA
Pressure: 30.18"   Gusts: NA
Location:  29.84°N, 98.27°W
Report Text: KBAZ 241551Z 00000KT 10SM CLR 24/14 A3018 RMK AO2 SLP214 T02390144
Loading
Personal Weather Stations






























Interactive Weather Map
Tropical Storm Tracking
New forecast layout! Learn more

10-Day Weather Forecast

Advertisements
Track Severe Weather on mobile